createdAt,value
2022-09-11T00:02:08.887Z,16.37
2022-09-11T00:07:30.962Z,16.38
2022-09-11T00:12:53.082Z,16.43
2022-09-11T00:18:17.493Z,16.37
2022-09-11T00:23:39.322Z,16.38
2022-09-11T00:29:01.834Z,16.35
2022-09-11T00:34:23.683Z,16.34
2022-09-11T00:39:45.402Z,16.41
2022-09-11T00:45:09.037Z,16.46
2022-09-11T00:50:32.638Z,16.40
2022-09-11T00:56:01.680Z,16.42
2022-09-11T01:01:23.362Z,16.40
2022-09-11T01:06:46.634Z,16.39
2022-09-11T01:12:17.479Z,16.49
2022-09-11T01:18:14.987Z,16.48
2022-09-11T01:23:55.949Z,16.51
2022-09-11T01:29:39.378Z,16.51
2022-09-11T01:35:13.471Z,16.40
2022-09-11T01:40:57.569Z,16.34
2022-09-11T01:46:23.012Z,16.36
2022-09-11T01:51:47.560Z,16.37
2022-09-11T01:57:36.686Z,16.34
2022-09-11T02:03:07.461Z,16.36
2022-09-11T02:08:58.635Z,16.31
2022-09-11T02:14:25.758Z,16.29
2022-09-11T02:19:49.160Z,16.35
2022-09-11T02:25:11.553Z,16.27
2022-09-11T02:30:33.466Z,16.35
2022-09-11T02:36:05.190Z,16.31
2022-09-11T02:41:42.360Z,16.30
2022-09-11T02:47:05.595Z,16.31
2022-09-11T02:52:49.341Z,16.27
2022-09-11T02:58:26.930Z,16.30
2022-09-11T03:03:49.385Z,16.38
2022-09-11T03:09:11.153Z,16.44
2022-09-11T03:14:32.883Z,16.48
2022-09-11T03:19:54.695Z,16.44
2022-09-11T03:25:16.451Z,16.47
2022-09-11T03:30:39.655Z,16.40
2022-09-11T03:36:01.572Z,16.40
2022-09-11T03:41:23.304Z,16.37
2022-09-11T03:46:45.017Z,16.38
2022-09-11T03:52:06.824Z,16.37
2022-09-11T03:57:28.568Z,16.42
2022-09-11T04:02:50.478Z,16.41
2022-09-11T04:08:13.224Z,16.44
2022-09-11T04:13:37.495Z,16.49
2022-09-11T04:19:01.825Z,16.51
2022-09-11T04:24:23.589Z,16.50
2022-09-11T04:29:47.948Z,16.52
2022-09-11T04:35:09.772Z,16.46
2022-09-11T04:40:33.815Z,16.43
2022-09-11T04:46:03.737Z,16.50
2022-09-11T04:51:29.174Z,16.44
2022-09-11T04:56:51.213Z,16.48
2022-09-11T05:02:13.055Z,16.45
2022-09-11T05:07:35.574Z,16.56
2022-09-11T05:12:57.352Z,16.51
2022-09-11T05:18:19.227Z,16.57
2022-09-11T05:23:42.355Z,16.66
2022-09-11T05:29:09.895Z,16.58
2022-09-11T05:34:31.699Z,16.50
2022-09-11T05:39:53.569Z,16.54
2022-09-11T05:45:15.473Z,16.51
2022-09-11T05:50:38.365Z,16.51
2022-09-11T05:56:20.711Z,16.53
2022-09-11T06:01:43.213Z,16.59
2022-09-11T06:07:05.068Z,16.64
2022-09-11T06:12:28.329Z,16.65
2022-09-11T06:17:50.079Z,16.74
2022-09-11T06:23:12.141Z,16.72
2022-09-11T06:28:35.658Z,16.78
2022-09-11T06:33:57.472Z,16.71
2022-09-11T06:39:23.154Z,16.72
2022-09-11T06:44:50.084Z,16.75
2022-09-11T06:50:12.468Z,16.77
2022-09-11T06:55:35.686Z,16.90
2022-09-11T07:01:27.119Z,16.86
2022-09-11T07:06:50.154Z,16.93
2022-09-11T07:12:12.107Z,16.96
2022-09-11T07:17:33.976Z,16.93
2022-09-11T07:22:55.729Z,16.89
2022-09-11T07:28:17.471Z,16.88
2022-09-11T07:33:42.842Z,16.90
2022-09-11T07:39:05.045Z,16.88
2022-09-11T07:44:26.834Z,16.88
2022-09-11T07:49:48.798Z,16.97
2022-09-11T07:55:10.727Z,17.03
2022-09-11T08:00:36.894Z,17.05
2022-09-11T08:06:03.981Z,17.11
2022-09-11T08:11:27.767Z,17.09
2022-09-11T08:16:49.590Z,17.17
2022-09-11T08:22:11.490Z,17.25
2022-09-11T08:27:33.350Z,17.32
2022-09-11T08:32:55.196Z,17.37
2022-09-11T08:38:18.067Z,17.48
2022-09-11T08:43:50.854Z,17.53
2022-09-11T08:49:27.284Z,17.60
2022-09-11T08:54:50.612Z,17.55
2022-09-11T09:00:24.782Z,17.44
2022-09-11T09:06:25.385Z,17.38
2022-09-11T09:12:10.184Z,17.38
2022-09-11T09:17:49.156Z,17.51
2022-09-11T09:23:18.334Z,17.62
2022-09-11T09:28:45.029Z,17.79
2022-09-11T09:34:22.039Z,17.94
2022-09-11T09:39:45.123Z,18.02
2022-09-11T09:45:19.196Z,18.02
2022-09-11T09:50:44.165Z,18.05
2022-09-11T09:56:06.171Z,18.08
2022-09-11T10:01:40.053Z,18.07
2022-09-11T10:07:14.164Z,18.09
2022-09-11T10:12:36.203Z,18.15
2022-09-11T10:18:30.485Z,18.26
2022-09-11T10:24:17.620Z,18.27
2022-09-11T10:29:50.311Z,18.20
2022-09-11T10:35:12.634Z,18.23
2022-09-11T10:40:34.493Z,18.31
2022-09-11T10:46:05.097Z,18.34
2022-09-11T10:51:29.907Z,18.42
2022-09-11T10:57:13.212Z,18.35
2022-09-11T11:02:38.828Z,18.43
2022-09-11T11:08:15.459Z,18.51
2022-09-11T11:14:15.468Z,18.55
2022-09-11T11:19:51.473Z,18.61
2022-09-11T11:25:27.467Z,18.65
2022-09-11T11:31:23.786Z,18.69
2022-09-11T11:36:50.180Z,18.72
2022-09-11T11:42:22.736Z,18.86
2022-09-11T11:47:47.281Z,19.02
2022-09-11T11:53:50.345Z,19.21
2022-09-11T11:59:19.569Z,19.41
2022-09-11T12:05:03.021Z,19.62
2022-09-11T12:10:33.364Z,19.81
2022-09-11T12:16:11.457Z,19.78
2022-09-11T12:21:39.481Z,19.79
2022-09-11T12:27:35.138Z,19.86
2022-09-11T12:33:00.285Z,19.76
2022-09-11T12:38:40.771Z,19.60
2022-09-11T12:44:04.573Z,19.54
2022-09-11T12:49:27.270Z,19.49
2022-09-11T12:54:49.285Z,19.44
2022-09-11T13:00:22.899Z,19.46
2022-09-11T13:05:54.587Z,19.47
2022-09-11T13:11:38.156Z,19.47
2022-09-11T13:17:12.148Z,19.48
2022-09-11T13:22:35.184Z,19.46
2022-09-11T13:28:03.936Z,19.48
2022-09-11T13:33:29.052Z,19.50
2022-09-11T13:38:56.021Z,19.52
2022-09-11T13:44:40.408Z,19.47
2022-09-11T13:50:06.521Z,19.45
2022-09-11T13:55:28.331Z,19.44
2022-09-11T14:00:55.437Z,19.44
2022-09-11T14:06:20.553Z,19.43
2022-09-11T14:11:42.319Z,19.39
2022-09-11T14:17:04.636Z,19.42
2022-09-11T14:22:31.064Z,19.48
2022-09-11T14:27:53.126Z,19.65
2022-09-11T14:33:22.584Z,19.85
2022-09-11T14:38:44.820Z,19.96
2022-09-11T14:44:11.330Z,20.03
2022-09-11T14:49:33.200Z,20.12
2022-09-11T14:54:55.744Z,20.16
2022-09-11T15:00:19.542Z,20.17
2022-09-11T15:05:43.118Z,20.11
2022-09-11T15:11:05.013Z,20.10
2022-09-11T15:16:26.770Z,20.13
2022-09-11T15:21:48.624Z,20.00
2022-09-11T15:27:10.450Z,19.99
2022-09-11T15:32:32.348Z,20.06
2022-09-11T15:37:54.189Z,20.12
2022-09-11T15:43:15.970Z,20.19
2022-09-11T15:48:39.185Z,20.23
2022-09-11T15:54:02.497Z,20.24
2022-09-11T15:59:24.266Z,20.23
2022-09-11T16:04:51.600Z,20.18
2022-09-11T16:10:15.319Z,20.13
2022-09-11T16:15:37.199Z,20.10
2022-09-11T16:20:59.346Z,20.06
2022-09-11T16:26:24.076Z,20.03
2022-09-11T16:31:45.914Z,20.00
2022-09-11T16:37:07.755Z,19.98
2022-09-11T16:42:29.520Z,19.91
2022-09-11T16:47:52.075Z,19.88
2022-09-11T16:53:13.908Z,19.84
2022-09-11T16:58:36.584Z,19.85
2022-09-11T17:03:58.495Z,19.86
2022-09-11T17:09:20.330Z,19.86
2022-09-11T17:14:42.126Z,19.85
2022-09-11T17:20:04.494Z,19.80
2022-09-11T17:25:26.310Z,19.71
2022-09-11T17:30:48.093Z,19.64
2022-09-11T17:36:11.476Z,19.59
2022-09-11T17:41:33.367Z,19.47
2022-09-11T17:46:56.946Z,19.31
2022-09-11T17:52:21.350Z,19.16
2022-09-11T17:57:45.400Z,19.06
2022-09-11T18:03:08.050Z,18.93
2022-09-11T18:08:32.831Z,18.82
2022-09-11T18:13:54.807Z,18.77
2022-09-11T18:19:20.188Z,18.72
2022-09-11T18:24:41.996Z,18.64
2022-09-11T18:30:04.097Z,18.54
2022-09-11T18:35:26.727Z,18.49
2022-09-11T18:40:54.476Z,18.46
2022-09-11T18:46:16.435Z,18.39
2022-09-11T18:51:38.323Z,18.28
2022-09-11T18:57:00.395Z,18.18
2022-09-11T19:02:22.328Z,18.17
2022-09-11T19:07:45.480Z,18.05
2022-09-11T19:13:07.384Z,17.89
2022-09-11T19:18:29.095Z,17.87
2022-09-11T19:23:55.797Z,17.83
2022-09-11T19:29:20.159Z,17.74
2022-09-11T19:34:46.906Z,17.64
2022-09-11T19:40:09.908Z,17.58
2022-09-11T19:45:31.693Z,17.53
2022-09-11T19:50:54.059Z,17.52
2022-09-11T19:56:16.763Z,17.31
2022-09-11T20:01:38.640Z,17.22
2022-09-11T20:07:00.623Z,17.17
2022-09-11T20:12:22.503Z,16.94
2022-09-11T20:17:47.408Z,16.83
2022-09-11T20:23:10.244Z,16.85
2022-09-11T20:28:32.037Z,16.76
2022-09-11T20:33:54.723Z,16.68
2022-09-11T20:39:16.616Z,16.73
2022-09-11T20:44:38.358Z,16.79
2022-09-11T20:50:00.759Z,16.87
2022-09-11T20:55:23.030Z,16.69
2022-09-11T21:00:46.024Z,16.57
2022-09-11T21:06:08.553Z,16.55
2022-09-11T21:11:30.979Z,16.52
2022-09-11T21:16:53.140Z,16.58
2022-09-11T21:22:14.911Z,16.67
2022-09-11T21:27:36.727Z,16.44
2022-09-11T21:32:58.649Z,16.44
2022-09-11T21:38:25.892Z,16.46
2022-09-11T21:43:47.933Z,16.46
2022-09-11T21:49:10.042Z,16.39
2022-09-11T21:54:32.119Z,16.41
2022-09-11T21:59:54.419Z,16.30
2022-09-11T22:05:17.088Z,16.26
2022-09-11T22:10:47.477Z,16.16
2022-09-11T22:16:12.326Z,16.01
2022-09-11T22:21:34.123Z,15.84
2022-09-11T22:26:55.843Z,15.85
2022-09-11T22:32:17.588Z,15.86
2022-09-11T22:37:39.352Z,15.83
2022-09-11T22:43:01.183Z,15.71
2022-09-11T22:48:23.093Z,15.63
2022-09-11T22:53:45.166Z,15.59
2022-09-11T22:59:07.235Z,15.44
2022-09-11T23:04:29.000Z,15.25
2022-09-11T23:09:50.719Z,15.49
2022-09-11T23:15:12.475Z,15.58
2022-09-11T23:20:34.238Z,15.47
2022-09-11T23:25:56.007Z,15.37
2022-09-11T23:31:20.946Z,15.20
2022-09-11T23:36:43.709Z,15.35
2022-09-11T23:42:05.675Z,15.15
2022-09-11T23:47:27.426Z,15.06
2022-09-11T23:52:49.155Z,15.00
2022-09-11T23:58:10.923Z,15.17
